Flight Track Log - Related Links

Times and Time Zones

All times are in EDT time to prevent confusion due to time zone crossing. See the N588AC flight status page for this flight to view local times or setup timezone preferences in your user account.

Time Position Orientation Groundspeed Altitude Reporting Facility
EDT Latitude Longitude Course Direction KTS MPH feet Rate Location/Type
Sun 05:32:05 PM 37.2622 -80.3231 317° Northwest 167 192 9,100  Level Washington Center
Sun 05:34:20 PM 37.3681 -80.4825 310° West 259 298 15,900 2,772 Climbing Indianapolis Center
Sun 05:35:22 PM 37.4194 -80.5456 316° Northwest 264 304 18,200 2,371 Climbing Indianapolis Center
Sun 05:36:00 PM 37.5532 -80.8198 322° Northwest  Level FlightAware Approximate
Sun 05:36:24 PM 37.4753 -80.6131 316° Northwest 282 325 20,800  Level Indianapolis Center
Sun 05:37:00 PM 37.6158 -80.8883 317° Northwest  Level FlightAware Approximate
Sun 05:37:26 PM 37.5389 -80.7006 313° West 288 331 22,800  Level Indianapolis Center
Sun 05:38:28 PM 37.6069 -80.7839 316° Northwest 337 388 23,100 146 Climbing Indianapolis Center
Sun 05:39:29 PM 37.6775 -80.8758 314° West 368 423 23,100 -98 Level Indianapolis Center
Sun 05:40:31 PM 37.7442 -80.9644 314° West 361 415 22,900 435 Descending Indianapolis Center
Sun 05:41:33 PM 37.8236 -81.0689 314° West 350 403 24,000 1,113 Climbing Indianapolis Center
Sun 05:42:35 PM 37.8831 -81.1514 312° West 347 399 25,200 1,548 Climbing Indianapolis Center
Sun 05:43:37 PM 37.9489 -81.2400 313° West 346 398 27,200 1,790 Climbing Indianapolis Center
Sun 05:44:39 PM 38.0192 -81.3247 316° Northwest 347 399 28,900 1,403 Climbing Indianapolis Center
Sun 05:45:41 PM 38.0989 -81.4306 314° West 345 397 30,100 1,024 Climbing Indianapolis Center
Sun 05:46:42 PM 38.1689 -81.5261 313° West 364 419 31,000 439 Climbing Indianapolis Center
Sun 05:47:44 PM 38.2483 -81.6183 318° Northwest 386 444 31,000 -48 Level Indianapolis Center
Sun 05:48:46 PM 38.3631 -81.6547 346° North 422 486 30,900 -48 Descending Indianapolis Center
Sun 05:49:48 PM 38.4803 -81.6803 350° North 425 489 30,900  Level Indianapolis Center
Sun 05:50:50 PM 38.5983 -81.7058 350° North 424 488 30,900  Level Indianapolis Center
Sun 05:51:52 PM 38.7189 -81.7336 350° North 428 493 30,900  Level Indianapolis Center
Sun 05:52:54 PM 38.8367 -81.7586 351° North 422 486 30,900  Level Indianapolis Center
Sun 05:53:56 PM 38.9519 -81.7844 350° North 417 480 30,900  Level Indianapolis Center
Sun 05:54:58 PM 39.0686 -81.8100 350° North 421 484 30,900  Level Indianapolis Center
Sun 05:56:00 PM 39.2081 -81.8400 351° North 421 484 30,900  Level Indianapolis Center
Sun 05:57:02 PM 39.3233 -81.8672 350° North 420 483 30,900 -829 Level Indianapolis Center
Sun 05:58:03 PM 39.4386 -81.8933 350° North 419 482 29,200 -2,000 Descending Indianapolis Center
Sun 05:59:05 PM 39.5536 -81.9197 350° North 417 480 26,800 -2,274 Descending Indianapolis Center
Sun 06:00:07 PM 39.6661 -81.9442 351° North 409 471 24,500 -1,500 Descending Indianapolis Center
Sun 06:01:09 PM 39.7833 -81.9708 350° North 383 441 23,700 -1,113 Descending Indianapolis Center
Sun 06:02:11 PM 39.8878 -81.9953 350° North 377 434 22,200 -1,500 Descending Indianapolis Center
Sun 06:03:13 PM 39.9856 -82.0178 350° North 358 412 20,600 -1,065 Descending Indianapolis Center
Sun 06:04:15 PM 40.0825 -82.0397 350° North 352 405 20,000 -823 Descending Indianapolis Center
Sun 06:05:17 PM 40.1817 -82.0633 350° North 357 411 18,900 -960 Descending Indianapolis Center
Sun 06:06:20 PM 40.2800 -82.0858 350° North 341 392 18,000 -1,104 Descending Indianapolis Center
Sun 06:07:22 PM 40.3700 -82.1075 350° North 328 377 16,600 -1,359 Descending Indianapolis Center
Sun 06:08:28 PM 40.4758 -82.1117 358° North 325 374 15,100 -762 Descending Cleveland Center
Sun 06:09:28 PM 40.5392 -82.0475 38° Northeast 281 323 15,000 -50 Descending Cleveland Center
Sun 06:10:28 PM 40.6069 -81.9806 37° Northeast 281 323 15,000 -150 Level Cleveland Center
Sun 06:11:28 PM 40.6786 -81.9081 37° Northeast 311 358 14,700 -850 Descending Cleveland Center
Sun 06:12:28 PM 40.7503 -81.8356 37° Northeast 326 375 13,300 -1,340 Descending Cleveland Center
Sun 06:13:11 PM 40.7986 -81.7900 36° Northeast 323 372 12,400 -1,500 Descending Cleveland Center
Sun 06:13:28 PM 40.8197 -81.7656 41° Northeast 321 369 11,800 -1,500 Descending Cleveland Center
Sun 06:13:59 PM 40.8578 -81.7278 37° Northeast 317 365 11,200 -457 Descending Cleveland Center
Sun 06:15:00 PM 40.9272 -81.6631 35° Northeast 310 357 11,100 -135 Descending Cleveland Center
Sun 06:15:28 PM 40.9606 -81.6556 10° North 310 357 11,000  Descending Cleveland Center
Sun 06:15:55 PM 41.0064 -81.6561 359° North 309 356 11,100 -300 Climbing Cleveland Center
Sun 06:16:28 PM 41.0481 -81.6514 North 296 341 10,700 -1,200 Descending Cleveland Center
Sun 06:16:50 PM 41.0836 -81.6492 North 311 358 10,000 -1,700 Descending Cleveland Center
Sun 06:17:28 PM 41.1275 -81.6472 North 289 333 9,000 -1,791 Descending Cleveland Center
Sun 06:17:57 PM 41.1669 -81.6450 North 263 303 8,000 -1,800 Descending Cleveland Center
Sun 06:18:28 PM 41.2025 -81.6428 North 282 325 7,200 -1,889 Descending Cleveland Center
Sun 06:18:51 PM 41.2381 -81.6433 359° North 277 319 6,300 -1,800 Descending Cleveland Center
Sun 06:19:28 PM 41.2797 -81.6386 North 271 312 5,400 -1,745 Descending Cleveland Center
Sun 06:19:46 PM 41.3089 -81.6392 359° North 271 312 4,700 -2,100 Descending Cleveland Center
Sun 06:20:28 PM 41.3569 -81.6372 North 266 306 3,300 -1,574 Descending Cleveland Center
Sun 06:20:47 PM 41.3778 -81.6375 359° North 245 282 3,100 -200 Descending Cleveland Center
Sun 06:21:28 PM 41.4214 -81.6325 North 238 274 3,100 -157 Level Cleveland Center
Sun 06:22:42 PM 41.4903 -81.6419 354° North 216 249 2,800 -489 Descending Cleveland Center
Sun 06:23:43 PM 41.5419 -81.6761 334° Northwest 187 215 2,000 -659 Descending Cleveland Center
Sun 06:25:00 PM 41.5167 -81.6667 62° Northeast  Level FlightAware Approximate
Sun 06:25:44 PM 41.5064 -81.7061 62° Northeast 111 128 800  Level Cleveland Center
Sun 06:27:00 PM 41.5175 -81.6833 62° Northeast  Level Estimated
Sun 06:34:00 PM 41.5175 -81.6833 62° Northeast  Level Estimated

Login

Don't have an account? Register now (free) for customized features, flight alerts, and more!